Time;durP1;ratioP1;P1;durP2;ratioP2;P2;SDS_P1;SDS_P2;PMS_P1;PMS_P2;Temp;Humidity;BMP_temperature;BMP_pressure;BME280_temperature;BME280_humidity;BME280_pressure;Samples;Min_cycle;Max_cycle;Signal;HPM_P1;HPM_P2
2022/11/04 00:00:54;;;;;;;;;52.33;35.00;;;;;10.18;100.00;99495.38;6271446;20;3607601;-69
2022/11/04 00:03:24;;;;;;;;;61.00;45.25;;;;;10.21;100.00;99479.09;6302529;20;3637834;-69
2022/11/04 00:05:53;;;;;;;;;58.33;45.67;;;;;10.28;100.00;99486.69;6305669;20;3639850;-69
2022/11/04 00:08:26;;;;;;;;;50.00;39.33;;;;;10.40;100.00;99489.53;6267336;20;3590738;-69
2022/11/04 00:13:47;;;;;;;;;62.00;44.00;;;;;10.27;100.00;99479.63;6303323;20;3624195;-69
2022/11/04 00:19:05;;;;;;;;;57.33;44.33;;;;;10.40;100.00;99481.50;6307328;20;3621098;-69
2022/11/04 00:30:10;;;;;;;;;58.33;43.67;;;;;10.22;100.00;99435.22;6272064;20;3635768;-69
2022/11/04 00:35:27;;;;;;;;;60.00;44.00;;;;;10.11;100.00;99436.78;6304261;20;3631615;-69
2022/11/04 00:37:57;;;;;;;;;79.67;59.67;;;;;10.16;100.00;99433.78;6271340;20;3654428;-69
2022/11/04 00:40:26;;;;;;;;;62.00;45.67;;;;;10.32;100.00;99434.56;6274245;20;3649246;-69
2022/11/04 00:42:56;;;;;;;;;61.00;43.33;;;;;10.29;100.00;99424.03;6269606;20;3636752;-69
2022/11/04 00:45:28;;;;;;;;;62.67;44.33;;;;;10.32;100.00;99429.19;6301905;20;3636662;-69
2022/11/04 00:47:58;;;;;;;;;60.67;44.67;;;;;10.17;100.00;99419.41;6266771;20;3629377;-69
2022/11/04 00:50:27;;;;;;;;;54.67;44.67;;;;;10.17;100.00;99419.41;6307890;20;3612739;-69
2022/11/04 00:53:04;;;;;;;;;58.00;44.75;;;;;10.15;100.00;99424.00;6306595;20;3623278;-69
2022/11/04 00:55:33;;;;;;;;;57.00;44.00;;;;;10.19;100.00;99412.13;6304824;20;3625252;-69
2022/11/04 00:58:03;;;;;;;;;61.67;46.33;;;;;10.05;100.00;99414.81;6307031;20;3636699;-69
2022/11/04 01:00:33;;;;;;;;;59.67;44.67;;;;;10.12;100.00;99416.16;6304146;20;3623219;-69
2022/11/04 01:03:02;;;;;;;;;67.33;49.00;;;;;10.17;100.00;99419.41;6305193;20;3646147;-69
2022/11/04 01:05:37;;;;;;;;;65.67;49.00;;;;;10.03;100.00;99406.00;6268561;20;3653558;-69
2022/11/04 01:08:06;;;;;;;;;62.67;46.33;;;;;10.06;100.00;99404.00;6264465;20;3646074;-68
2022/11/04 01:10:43;;;;;;;;;60.33;42.33;;;;;10.11;100.00;99393.00;6267155;20;3636842;-68
2022/11/04 01:13:13;;;;;;;;;65.67;46.67;;;;;10.07;100.00;99375.34;6297107;20;3635869;-69
2022/11/04 01:15:43;;;;;;;;;64.00;46.00;;;;;10.08;100.00;99371.69;6298906;20;3644026;-68
2022/11/04 01:18:15;;;;;;;;;58.67;44.67;;;;;10.07;100.00;99370.00;6303774;20;3620135;-69
2022/11/04 01:20:44;;;;;;;;;56.67;45.67;;;;;10.01;100.00;99357.00;6311387;20;3609678;-68
2022/11/04 01:23:13;;;;;;;;;66.00;48.67;;;;;10.00;100.00;99356.09;6269617;20;3645205;-68
2022/11/04 01:25:43;;;;;;;;;51.00;36.67;;;;;9.90;100.00;99352.31;6303783;20;3625278;-68
2022/11/04 01:28:12;;;;;;;;;67.50;49.25;;;;;9.88;100.00;99351.56;6304142;20;4388807;-69
2022/11/04 01:30:42;;;;;;;;;61.25;46.00;;;;;9.81;100.00;99351.06;6301062;20;3634758;-69
2022/11/04 01:33:11;;;;;;;;;62.33;49.33;;;;;9.92;100.00;99339.66;6300128;20;3615927;-69
2022/11/04 01:35:41;;;;;;;;;62.33;47.67;;;;;9.83;100.00;99351.84;6303016;20;3632637;-69
2022/11/04 01:38:10;;;;;;;;;54.33;44.00;;;;;9.72;100.00;99358.84;6303906;20;3605524;-69
2022/11/04 01:40:41;;;;;;;;;68.00;50.00;;;;;9.83;100.00;99359.88;6300622;20;3651451;-69
2022/11/04 01:43:18;;;;;;;;;69.00;48.33;;;;;9.84;100.00;99364.28;6301129;20;3660682;-68
2022/11/04 01:46:00;;;;;;;;;54.00;45.00;;;;;9.81;100.00;99356.44;6270346;20;2864918;-69
2022/11/04 01:48:36;;;;;;;;;66.00;49.00;;;;;9.91;100.00;99355.84;6299242;20;3662775;-68
2022/11/04 01:51:06;;;;;;;;;56.67;42.67;;;;;9.87;100.00;99344.44;6270277;20;3623208;-68
2022/11/04 01:53:41;;;;;;;;;62.00;47.33;;;;;9.82;100.00;99350.13;6301005;20;3637857;-69
2022/11/04 01:56:13;;;;;;;;;58.25;44.50;;;;;9.70;100.00;99344.69;6305144;20;3635776;-69
2022/11/04 01:58:50;;;;;;;;;58.50;45.00;;;;;9.78;100.00;99339.69;6301233;20;3579466;-69
2022/11/04 02:01:28;;;;;;;;;54.33;43.33;;;;;9.83;100.00;99335.75;6301599;20;3617124;-68
2022/11/04 02:04:24;;;;;;;;;69.00;49.00;;;;;9.71;100.00;99324.94;6300831;20;3657595;-68
2022/11/04 02:07:10;;;;;;;;;56.67;44.00;;;;;9.74;100.00;99325.63;6299705;20;3607547;-69
2022/11/04 02:09:41;;;;;;;;;61.33;46.00;;;;;9.58;100.00;99319.50;6300128;20;3634616;-69
2022/11/04 02:14:59;;;;;;;;;69.33;49.33;;;;;9.56;100.00;99316.94;6301757;20;3645015;-69
2022/11/04 02:17:54;;;;;;;;;56.33;41.67;;;;;9.62;100.00;99313.00;6275215;20;3630518;-69
2022/11/04 02:21:02;;;;;;;;;63.00;42.67;;;;;9.58;100.00;99308.78;6300103;20;3638834;-69
2022/11/04 02:24:34;;;;;;;;;63.67;47.00;;;;;9.53;100.00;99305.53;6299586;20;3640983;-69
2022/11/04 02:27:46;;;;;;;;;62.00;47.00;;;;;9.32;100.00;99292.56;6310863;20;3644051;-68
2022/11/04 02:30:18;;;;;;;;;65.00;47.33;;;;;9.50;100.00;99287.81;6278732;20;3650255;-69
2022/11/04 02:33:18;;;;;;;;;64.00;46.33;;;;;9.57;100.00;99299.88;6275676;20;3649188;-69
2022/11/04 02:36:45;;;;;;;;;66.00;49.00;;;;;9.67;100.00;99302.84;6277311;20;3657632;-69
2022/11/04 02:39:52;;;;;;;;;66.00;47.33;;;;;9.60;100.00;99290.78;6277037;20;3653477;-69
2022/11/04 02:43:02;;;;;;;;;68.33;50.33;;;;;9.52;100.00;99280.56;6275332;20;3635841;-68
2022/11/04 02:45:43;;;;;;;;;62.67;48.00;;;;;9.51;100.00;99276.16;6274772;20;3634706;-69
2022/11/04 02:48:44;;;;;;;;;65.00;48.67;;;;;9.57;100.00;99261.50;6273149;20;3648203;-69
2022/11/04 02:52:05;;;;;;;;;68.00;48.00;;;;;9.52;100.00;99267.16;6310351;20;3629466;-68
2022/11/04 02:54:44;;;;;;;;;68.33;52.00;;;;;9.56;100.00;99262.47;6311582;20;3623204;-68
2022/11/04 02:57:25;;;;;;;;;70.00;51.00;;;;;9.52;100.00;99271.66;6276781;20;3620231;-69
2022/11/04 03:00:09;;;;;;;;;68.00;48.00;;;;;9.49;100.00;99266.50;6307562;20;3658611;-69
2022/11/04 03:03:14;;;;;;;;;75.00;49.67;;;;;9.47;100.00;99257.69;6275079;20;3633564;-68
2022/11/04 03:05:49;;;;;;;;;62.67;47.33;;;;;9.51;100.00;99260.09;6272248;20;3620734;-68
2022/11/04 03:08:37;;;;;;;;;65.00;49.00;;;;;9.49;100.00;99253.09;6308568;20;3641475;-69
2022/11/04 03:11:27;;;;;;;;;71.75;53.50;;;;;9.51;100.00;99249.38;6313102;20;3640949;-68
2022/11/04 03:14:19;;;;;;;;;67.67;51.33;;;;;9.49;100.00;99251.28;6307877;20;3615937;-68
2022/11/04 03:16:57;;;;;;;;;68.25;50.50;;;;;9.44;100.00;99243.53;6310938;20;3632701;-69
2022/11/04 03:19:56;;;;;;;;;74.67;49.33;;;;;9.36;100.00;99245.84;6309344;20;3662920;-68
2022/11/04 03:22:29;;;;;;;;;74.67;56.33;;;;;9.33;100.00;99229.97;6275807;20;3636887;-69
2022/11/04 03:25:05;;;;;;;;;70.67;48.33;;;;;9.32;100.00;99238.97;6307466;20;3649324;-68
2022/11/04 03:27:52;;;;;;;;;70.33;53.00;;;;;9.34;100.00;99246.88;6271474;20;3621108;-68
2022/11/04 03:30:23;;;;;;;;;66.50;51.00;;;;;9.30;100.00;99232.00;6307610;20;3637941;-68
2022/11/04 03:33:33;;;;;;;;;69.50;51.25;;;;;9.29;100.00;99244.50;6309897;20;3642138;-69
2022/11/04 03:36:03;;;;;;;;;73.25;52.25;;;;;9.24;100.00;99233.22;6314991;20;3635964;-68
2022/11/04 03:38:34;;;;;;;;;72.33;54.00;;;;;9.23;100.00;99234.19;6301345;20;3622232;-69
2022/11/04 03:41:14;;;;;;;;;64.67;46.00;;;;;9.20;100.00;99234.38;6301648;20;3645060;-68
2022/11/04 03:43:43;;;;;;;;;66.50;50.25;;;;;9.18;100.00;99236.28;6302580;20;3637792;-67
2022/11/04 03:46:13;;;;;;;;;75.00;52.00;;;;;8.96;100.00;99226.94;6302727;20;3624296;-68
2022/11/04 03:48:45;;;;;;;;;65.00;49.33;;;;;9.14;100.00;99237.44;6271033;20;3648205;-68
2022/11/04 03:51:15;;;;;;;;;64.00;47.00;;;;;9.16;100.00;99240.88;6269790;20;3644051;-70
2022/11/04 03:53:45;;;;;;;;;69.67;49.67;;;;;9.12;100.00;99242.91;6270545;20;3647175;-68
2022/11/04 03:56:39;;;;;;;;;59.50;48.50;;;;;9.30;100.00;99248.06;6267852;20;2861757;-68
2022/11/04 03:59:45;;;;;;;;;64.33;50.67;;;;;9.22;100.00;99251.22;6271195;20;3623125;-68
2022/11/04 04:02:26;;;;;;;;;76.00;52.67;;;;;9.04;100.00;99236.31;6303496;20;3649399;-69
2022/11/04 04:05:28;;;;;;;;;68.33;51.33;;;;;9.16;100.00;99244.44;6271181;20;3638910;-68
2022/11/04 04:08:37;;;;;;;;;64.67;47.33;;;;;9.30;100.00;99234.66;6301119;20;3644082;-69
2022/11/04 04:11:25;;;;;;;;;59.33;45.33;;;;;9.15;100.00;99225.78;6269602;20;3625415;-68
2022/11/04 04:14:39;;;;;;;;;72.00;47.67;;;;;9.08;100.00;99213.72;6301200;20;3643028;-68
2022/11/04 04:17:30;;;;;;;;;68.00;51.00;;;;;9.02;100.00;99209.59;6268793;20;3650256;-69
2022/11/04 04:20:17;;;;;;;;;63.67;48.33;;;;;9.01;100.00;99195.38;6302852;20;3631490;-68
2022/11/04 04:28:56;;;;;;;;;60.33;43.67;;;;;8.82;100.00;99181.44;6297621;20;3629480;-68
2022/11/04 04:34:27;;;;;;;;;69.67;50.33;;;;;8.88;100.00;99175.69;6269190;20;3639967;-69
2022/11/04 04:37:21;;;;;;;;;56.50;43.50;;;;;8.70;100.00;99176.84;6299892;20;3496187;-68
2022/11/04 04:45:55;;;;;;;;;65.67;50.67;;;;;8.73;100.00;99161.44;6299501;20;3615949;-68
2022/11/04 04:48:24;;;;;;;;;64.67;45.00;;;;;8.74;100.00;99173.88;6295474;20;3638941;-69
2022/11/04 04:50:56;;;;;;;;;70.67;53.33;;;;;8.66;100.00;99164.56;6267948;20;3616980;-69
2022/11/04 04:53:26;;;;;;;;;69.67;50.00;;;;;8.70;100.00;99166.97;6298709;20;3638825;-69
2022/11/04 04:55:55;;;;;;;;;64.67;48.33;;;;;8.69;100.00;99165.28;6299543;20;3624387;-69
2022/11/04 04:58:25;;;;;;;;;64.67;50.00;;;;;8.64;100.00;99154.00;6299922;20;3629266;-68
2022/11/04 05:00:54;;;;;;;;;64.00;49.33;;;;;8.54;100.00;99155.50;6294575;20;3634655;-69
2022/11/04 05:03:25;;;;;;;;;64.33;48.00;;;;;8.59;100.00;99144.53;6301208;20;3639009;-69
2022/11/04 05:05:54;;;;;;;;;61.00;48.00;;;;;8.60;100.00;99140.88;6263371;20;3628548;-69
2022/11/04 05:08:27;;;;;;;;;66.00;47.33;;;;;8.46;100.00;99142.59;6296105;20;3647159;-69
2022/11/04 05:10:58;;;;;;;;;60.00;47.00;;;;;8.51;100.00;99135.16;6266838;20;3633574;-68
2022/11/04 05:13:29;;;;;;;;;58.33;44.00;;;;;8.50;100.00;99127.22;6295387;20;3621237;-69
2022/11/04 05:16:10;;;;;;;;;56.67;43.00;;;;;8.55;100.00;99131.31;6301723;20;3616893;-69
2022/11/04 05:18:39;;;;;;;;;60.67;45.67;;;;;8.50;100.00;99137.91;6300585;20;3632667;-70
2022/11/04 05:21:14;;;;;;;;;60.00;46.33;;;;;8.62;100.00;99130.97;6298278;20;3626314;-70
2022/11/04 05:23:43;;;;;;;;;61.33;46.00;;;;;8.60;100.00;99135.53;6300174;20;3624229;-68
2022/11/04 05:26:13;;;;;;;;;62.67;45.00;;;;;8.49;100.00;99142.41;6296911;20;3635704;-68
2022/11/04 05:28:43;;;;;;;;;66.67;46.33;;;;;8.40;100.00;99140.31;6294389;20;3654557;-68
2022/11/04 05:31:13;;;;;;;;;61.00;49.00;;;;;8.53;100.00;99143.97;6295906;20;3507577;-68
2022/11/04 05:33:42;;;;;;;;;65.33;49.00;;;;;8.52;100.00;99130.66;6296878;20;3651287;-69
2022/11/04 05:36:15;;;;;;;;;62.67;45.00;;;;;8.45;100.00;99138.22;6296133;20;3641946;-68
2022/11/04 05:38:54;;;;;;;;;65.67;47.00;;;;;8.51;100.00;99135.16;6299273;20;3651336;-69
2022/11/04 05:41:26;;;;;;;;;63.00;48.00;;;;;8.47;100.00;99130.94;6266921;20;3638967;-69
2022/11/04 05:44:00;;;;;;;;;64.67;48.00;;;;;8.33;100.00;99131.75;6297055;20;3642981;-67
2022/11/04 05:46:31;;;;;;;;;50.67;38.00;;;;;8.26;100.00;99124.22;6267256;20;2871191;-70
2022/11/04 05:49:00;;;;;;;;;64.00;49.75;;;;;8.30;100.00;99131.94;6293582;20;3639953;-70
2022/11/04 05:51:30;;;;;;;;;66.00;49.67;;;;;8.39;100.00;99127.88;6298122;20;3619040;-69
2022/11/04 05:54:00;;;;;;;;;61.67;46.67;;;;;8.49;100.00;99134.38;6300254;20;3633660;-69
2022/11/04 05:56:30;;;;;;;;;60.00;47.33;;;;;8.59;100.00;99141.84;6300354;20;3641999;-70
2022/11/04 05:59:00;;;;;;;;;61.33;46.00;;;;;8.51;100.00;99139.66;6297759;20;3639854;-71
2022/11/04 06:01:38;;;;;;;;;63.33;48.33;;;;;8.43;100.00;99142.81;6291939;20;3646215;-68
2022/11/04 06:04:16;;;;;;;;;63.33;47.00;;;;;8.48;100.00;99151.41;6262209;20;3627489;-69
2022/11/04 06:06:45;;;;;;;;;58.00;43.00;;;;;8.41;100.00;99150.06;6296323;20;3628476;-70
2022/11/04 06:09:15;;;;;;;;;60.67;47.00;;;;;8.46;100.00;99141.75;6301735;20;3630498;-69
2022/11/04 06:11:45;;;;;;;;;58.33;44.33;;;;;8.57;100.00;99147.28;6298249;20;3607576;-69
2022/11/04 06:14:14;;;;;;;;;56.00;44.00;;;;;8.34;100.00;99148.66;6293702;20;3609646;-69
2022/11/04 06:16:47;;;;;;;;;60.00;47.33;;;;;8.38;100.00;99155.56;6297635;20;3630496;-69
2022/11/04 06:19:16;;;;;;;;;71.67;49.33;;;;;8.56;100.00;99153.59;6301537;20;3653417;-69
2022/11/04 06:21:46;;;;;;;;;65.00;49.00;;;;;8.43;100.00;99152.66;6268865;20;3635749;-69
2022/11/04 06:24:15;;;;;;;;;63.00;51.00;;;;;8.37;100.00;99153.81;6266873;20;3619024;-69
2022/11/04 06:26:44;;;;;;;;;64.67;50.33;;;;;8.52;100.00;99162.75;6299490;20;3621141;-71
2022/11/04 06:29:14;;;;;;;;;76.00;53.75;;;;;8.42;100.00;99150.91;6267049;20;4391160;-69
2022/11/04 06:31:44;;;;;;;;;78.67;61.33;;;;;8.55;100.00;99151.88;6294972;20;3629479;-70
2022/11/04 06:34:14;;;;;;;;;166.50;145.50;;;;;8.62;100.00;99163.06;6297124;20;3735781;-69
2022/11/04 06:36:44;;;;;;;;;70.00;51.33;;;;;8.36;100.00;99162.81;6264459;20;3642037;-69
2022/11/04 06:39:13;;;;;;;;;61.67;47.00;;;;;8.63;100.00;99180.84;6262213;20;3635716;-71
2022/11/04 06:41:43;;;;;;;;;71.00;52.33;;;;;8.68;100.00;99192.97;6294653;20;3644108;-69
2022/11/04 06:44:18;;;;;;;;;90.33;74.33;;;;;8.78;100.00;99190.59;6299539;20;2907683;-69
2022/11/04 06:46:48;;;;;;;;;88.00;72.00;;;;;8.72;100.00;99191.84;6300964;20;3674258;-68
2022/11/04 06:49:21;;;;;;;;;52.50;37.00;;;;;8.56;100.00;99183.91;6259918;20;2859839;-69
2022/11/04 06:51:51;;;;;;;;;64.00;51.67;;;;;8.84;100.00;99181.31;6268196;20;3614934;-70
2022/11/04 06:54:20;;;;;;;;;69.67;53.00;;;;;8.83;100.00;99177.78;6302422;20;3627367;-69
2022/11/04 06:56:49;;;;;;;;;60.50;46.00;;;;;8.89;100.00;99181.88;6269765;20;3637764;-69
2022/11/04 06:59:20;;;;;;;;;65.00;49.25;;;;;8.74;100.00;99170.31;6297795;20;3646334;-69
2022/11/04 07:01:51;;;;;;;;;56.67;44.67;;;;;8.71;100.00;99181.22;6298144;20;3630485;-69
2022/11/04 07:04:20;;;;;;;;;77.33;57.33;;;;;8.87;100.00;99178.44;6297132;20;3652343;-68
2022/11/04 07:06:50;;;;;;;;;78.00;59.33;;;;;9.00;100.00;99185.63;6263661;20;3645056;-70
2022/11/04 07:09:20;;;;;;;;;85.33;63.33;;;;;8.86;100.00;99182.09;6264917;20;3658597;-69
2022/11/04 07:11:49;;;;;;;;;135.00;105.67;;;;;8.95;100.00;99171.66;6265088;20;3722106;-69
2022/11/04 07:14:19;;;;;;;;;65.00;49.00;;;;;8.99;100.00;99156.25;6269269;20;3643043;-71
2022/11/04 07:16:50;;;;;;;;;99.00;77.00;;;;;8.98;100.00;99166.13;6266025;20;3685682;-71
2022/11/04 07:19:20;;;;;;;;;93.33;80.33;;;;;8.98;100.00;99163.44;6270825;20;3645167;-71
2022/11/04 07:21:49;;;;;;;;;81.25;60.00;;;;;9.26;100.00;99152.75;6269557;20;4390968;-69
2022/11/04 07:24:19;;;;;;;;;57.67;45.00;;;;;9.17;100.00;99154.22;6302652;20;3618364;-70
2022/11/04 07:26:48;;;;;;;;;69.67;53.00;;;;;9.27;100.00;99146.44;6306777;20;3638878;-69
2022/11/04 07:29:18;;;;;;;;;75.00;57.00;;;;;9.22;100.00;99142.25;6261244;20;3627378;-69
2022/11/04 07:31:47;;;;;;;;;82.00;59.50;;;;;9.29;100.00;99145.38;6303404;20;4410705;-70
2022/11/04 07:34:16;;;;;;;;;77.33;59.00;;;;;9.31;100.00;99140.78;6302434;20;3632666;-70
2022/11/04 07:36:46;;;;;;;;;103.00;83.25;;;;;9.47;100.00;99139.78;6268269;20;4469041;-70
2022/11/04 07:39:16;;;;;;;;;79.00;59.33;;;;;9.18;100.00;99145.22;6256836;20;3649283;-70
2022/11/04 07:41:45;;;;;;;;;69.00;56.00;;;;;9.50;100.00;99150.28;6263347;20;3618047;-70
2022/11/04 07:44:17;;;;;;;;;129.00;104.60;;;;;9.38;100.00;99152.84;6298200;20;4496224;-69
2022/11/04 07:46:46;;;;;;;;;68.67;50.00;;;;;9.41;100.00;99162.50;6300383;20;3644036;-69
2022/11/04 07:49:16;;;;;;;;;80.67;57.33;;;;;9.35;100.00;99157.53;6266487;20;3654494;-70
2022/11/04 07:51:47;;;;;;;;;97.67;77.33;;;;;9.64;100.00;99158.31;6267408;20;3686762;-69
2022/11/04 07:54:17;;;;;;;;;65.33;51.00;;;;;9.33;100.00;99157.63;6300268;20;3634722;-70
2022/11/04 07:56:46;;;;;;;;;68.00;49.67;;;;;9.70;100.00;99138.28;6266798;20;3652344;-69
2022/11/04 07:59:16;;;;;;;;;57.33;43.33;;;;;9.55;100.00;99141.00;6293605;20;3609679;-70
2022/11/04 08:01:45;;;;;;;;;52.00;42.67;;;;;9.57;100.00;99120.31;6301270;20;2858716;-70
2022/11/04 08:04:15;;;;;;;;;54.67;40.33;;;;;9.62;100.00;99112.81;6302208;20;3626345;-68
2022/11/04 08:06:47;;;;;;;;;62.00;49.67;;;;;9.46;100.00;99114.81;6300873;20;3634665;-69
2022/11/04 08:09:16;;;;;;;;;58.33;45.67;;;;;9.60;100.00;99109.38;6306497;20;3629458;-70
2022/11/04 08:11:46;;;;;;;;;64.00;44.67;;;;;9.72;100.00;99115.75;6267470;20;3651352;-72
2022/11/04 08:14:15;;;;;;;;;41.00;38.00;;;;;9.77;100.00;99110.06;6269176;20;2837808;-70
2022/11/04 08:16:50;;;;;;;;;58.00;43.00;;;;;9.74;100.00;99103.13;6268363;20;3625253;-70
2022/11/04 08:19:20;;;;;;;;;61.75;46.25;;;;;9.75;100.00;99099.47;6304626;20;3636808;-68
2022/11/04 08:21:49;;;;;;;;;61.33;45.67;;;;;9.75;100.00;99085.22;6303591;20;3644089;-68
2022/11/04 08:24:19;;;;;;;;;61.00;47.00;;;;;9.72;100.00;99088.09;6268841;20;3613900;-69
2022/11/04 08:26:48;;;;;;;;;57.33;40.00;;;;;9.88;100.00;99078.91;6307962;20;3620049;-70
2022/11/04 08:29:18;;;;;;;;;58.67;45.00;;;;;9.79;100.00;99082.19;6269999;20;3624233;-71
2022/11/04 08:31:47;;;;;;;;;61.67;45.67;;;;;9.92;100.00;99059.91;6303469;20;3654485;-71
2022/11/04 08:34:17;;;;;;;;;60.67;45.00;;;;;9.98;100.00;99070.19;6271730;20;3641027;-73
2022/11/04 08:36:47;;;;;;;;;57.00;45.00;;;;;10.14;100.00;99072.69;6299917;20;2828574;-70
2022/11/04 08:39:17;;;;;;;;;63.33;47.33;;;;;10.02;100.00;99082.44;6302625;20;3644040;-71
2022/11/04 08:41:47;;;;;;;;;55.67;46.33;;;;;10.04;100.00;99092.09;6265458;20;3612863;-70
2022/11/04 08:44:18;;;;;;;;;59.33;47.33;;;;;9.82;100.00;99098.09;6299758;20;3617055;-71
2022/11/04 08:46:48;;;;;;;;;57.00;45.00;;;;;10.07;100.00;99097.25;6301973;20;3622240;-70
2022/11/04 08:49:18;;;;;;;;;67.67;51.00;;;;;10.06;100.00;99084.81;6298122;20;3647205;-71
2022/11/04 08:51:55;;;;;;;;;66.67;52.67;;;;;10.09;100.00;99089.13;6270115;20;2855696;-69
2022/11/04 08:54:26;;;;;;;;;61.67;49.00;;;;;10.14;100.00;99095.03;6299503;20;3631733;-68
2022/11/04 08:56:56;;;;;;;;;60.33;45.00;;;;;9.93;100.00;99083.09;6298562;20;3623223;-69
2022/11/04 08:59:24;;;;;;;;;58.33;47.33;;;;;10.11;100.00;99071.94;6307088;20;3606727;-70
2022/11/04 09:01:53;;;;;;;;;58.00;47.00;;;;;10.02;100.00;99077.09;6270373;20;3619031;-68
2022/11/04 09:04:23;;;;;;;;;59.00;45.00;;;;;10.05;100.00;99071.50;6265918;20;3620234;-69
2022/11/04 09:06:55;;;;;;;;;63.00;49.00;;;;;10.21;100.00;99082.03;6305055;20;3631704;-71
2022/11/04 09:09:27;;;;;;;;;59.00;46.67;;;;;10.17;100.00;99081.41;6303274;20;2859788;-72
2022/11/04 09:11:57;;;;;;;;;59.00;42.33;;;;;10.16;100.00;99073.44;6300745;20;2857661;-72
2022/11/04 09:14:27;;;;;;;;;60.67;46.67;;;;;10.52;100.00;99070.03;6304105;20;3622243;-70
2022/11/04 09:16:56;;;;;;;;;60.00;45.33;;;;;10.62;100.00;99065.72;6300990;20;3627401;-70
2022/11/04 09:19:26;;;;;;;;;61.67;49.67;;;;;10.45;100.00;99076.78;6299627;20;3610741;-68
2022/11/04 09:21:56;;;;;;;;;62.00;50.00;;;;;10.57;100.00;99067.88;6289707;20;3619164;-69
2022/11/04 09:24:25;;;;;;;;;64.00;50.67;;;;;10.46;100.00;99070.47;6301097;20;3629523;-67
2022/11/04 09:26:55;;;;;;;;;63.33;47.33;;;;;10.49;100.00;99059.50;6296905;20;3658064;-68
2022/11/04 09:29:25;;;;;;;;;65.67;50.33;;;;;10.49;100.00;99043.41;6270804;20;3640035;-68
2022/11/04 09:31:55;;;;;;;;;60.33;46.33;;;;;10.71;100.00;99038.19;6298336;20;3618008;-69
2022/11/04 09:34:23;;;;;;;;;62.33;49.00;;;;;10.95;100.00;99030.19;6300293;20;3615461;-69
2022/11/04 09:36:56;;;;;;;;;57.33;47.33;;;;;11.08;100.00;99038.19;6272418;20;3606547;-70
2022/11/04 09:39:31;;;;;;;;;60.00;47.67;;;;;11.18;100.00;99041.91;6268751;20;3610183;-71
2022/11/04 09:42:05;;;;;;;;;60.33;46.33;;;;;10.89;100.00;99048.56;6265817;20;3619047;-71
2022/11/04 09:45:12;;;;;;;;;60.33;46.00;;;;;10.88;100.00;99036.97;6265170;20;3636785;-68
2022/11/04 09:48:00;;;;;;;;;61.33;49.67;;;;;10.95;100.00;99040.94;6265791;20;3619050;-68
2022/11/04 09:50:50;;;;;;;;;60.33;48.00;;;;;10.99;100.00;99036.19;6300047;20;3630465;-69
2022/11/04 09:53:45;;;;;;;;;66.00;50.00;;;;;10.95;100.00;99037.38;6297115;20;3637763;-69
2022/11/04 09:56:36;;;;;;;;;63.33;49.33;;;;;10.86;100.00;99035.38;6299427;20;3631585;-71
2022/11/04 09:59:08;;;;;;;;;59.75;45.25;;;;;11.07;100.00;99032.94;6268824;20;3635730;-70
2022/11/04 10:02:10;;;;;;;;;61.75;47.00;;;;;10.83;100.00;99028.41;6300485;20;3641038;-69
2022/11/04 10:05:30;;;;;;;;;59.00;48.00;;;;;11.30;100.00;99023.16;6301032;20;3618050;-70
2022/11/04 10:08:19;;;;;;;;;57.33;44.67;;;;;11.32;100.00;99029.25;6272579;20;2872317;-70
2022/11/04 10:11:15;;;;;;;;;67.67;52.67;;;;;11.46;100.00;99026.41;6302986;20;3618016;-70
2022/11/04 10:14:01;;;;;;;;;64.33;49.00;;;;;11.34;100.00;99019.25;6269760;20;3632706;-70
2022/11/04 10:17:07;;;;;;;;;66.00;50.00;;;;;11.64;100.00;99006.19;6304949;20;3624249;-71
2022/11/04 10:19:53;;;;;;;;;64.33;50.33;;;;;11.69;100.00;99002.25;6301008;20;3607581;-71
2022/11/04 10:22:52;;;;;;;;;66.33;49.33;;;;;11.29;100.00;98999.94;6300785;20;3614841;-69
2022/11/04 10:25:44;;;;;;;;;61.25;49.00;;;;;11.44;100.00;98996.09;6304578;20;3622217;-69
2022/11/04 10:28:20;;;;;;;;;68.50;50.75;;;;;11.26;100.00;98989.41;6302288;20;3636849;-69
2022/11/04 10:30:51;;;;;;;;;65.00;49.67;;;;;11.42;100.00;98985.44;6302189;20;3612400;-68
2022/11/04 10:33:38;;;;;;;;;63.00;51.00;;;;;11.43;100.00;98986.31;6301152;20;3614165;-69
2022/11/04 10:36:10;;;;;;;;;71.00;52.33;;;;;11.54;100.00;98989.03;6269437;20;3628436;-71
2022/11/04 10:38:54;;;;;;;;;67.75;52.00;;;;;11.63;100.00;98984.78;6271901;20;3629401;-70
2022/11/04 10:41:36;;;;;;;;;59.50;47.25;;;;;11.94;100.00;98975.22;6300794;20;3643060;-68
2022/11/04 10:44:36;;;;;;;;;70.00;52.33;;;;;12.03;100.00;98979.88;6302441;20;3623278;-69
2022/11/04 10:47:41;;;;;;;;;67.67;50.67;;;;;12.16;99.71;98973.50;6267984;20;3604481;-69
2022/11/04 10:50:39;;;;;;;;;60.00;48.67;;;;;11.95;99.83;98958.06;6304696;20;3614868;-68
2022/11/04 10:53:26;;;;;;;;;60.67;47.00;;;;;11.73;100.00;98955.34;6264950;20;3641893;-68
2022/11/04 10:56:29;;;;;;;;;60.00;47.33;;;;;11.70;100.00;98956.44;6264361;20;3631663;-69
2022/11/04 10:59:30;;;;;;;;;62.00;49.33;;;;;11.49;100.00;98955.41;6311933;20;3619123;-69
2022/11/04 11:02:02;;;;;;;;;61.00;46.33;;;;;11.77;100.00;98956.81;6272570;20;3637737;-69
2022/11/04 11:04:39;;;;;;;;;58.67;46.67;;;;;11.73;100.00;98952.66;6305454;20;3628387;-69
2022/11/04 11:07:18;;;;;;;;;59.00;44.25;;;;;11.67;100.00;98950.47;6308249;20;4391950;-70
2022/11/04 11:09:52;;;;;;;;;56.33;44.33;;;;;11.93;100.00;98940.34;6300202;20;3618025;-68
2022/11/04 11:12:39;;;;;;;;;50.00;41.00;;;;;11.79;100.00;98933.34;6300372;20;3611705;-67
2022/11/04 11:15:25;;;;;;;;;58.33;44.00;;;;;12.05;100.00;98944.75;6303973;20;3614914;-68
2022/11/04 11:18:17;;;;;;;;;56.67;42.67;;;;;12.08;100.00;98939.13;6298974;20;3620037;-68
2022/11/04 11:21:07;;;;;;;;;52.00;42.67;;;;;12.36;100.00;98932.41;6272946;20;3623607;-69
2022/11/04 11:23:47;;;;;;;;;58.50;44.00;;;;;12.73;98.62;98924.00;6306915;20;3626376;-69
2022/11/04 11:26:29;;;;;;;;;58.00;45.00;;;;;12.82;97.19;98923.25;6307970;20;3621123;-68
2022/11/04 11:29:01;;;;;;;;;54.67;44.67;;;;;13.03;96.16;98917.03;6274578;20;3625230;-70
2022/11/04 11:31:38;;;;;;;;;54.33;43.67;;;;;13.59;95.31;98916.78;6309651;20;3616952;-69
2022/11/04 11:34:33;;;;;;;;;57.33;46.00;;;;;13.21;96.03;98911.91;6270817;20;3607637;-73
2022/11/04 11:37:05;;;;;;;;;58.33;47.00;;;;;13.22;95.75;98913.63;6308719;20;3614840;-68
2022/11/04 11:39:35;;;;;;;;;53.67;43.00;;;;;13.09;96.59;98909.28;6271790;20;3609786;-63
2022/11/04 11:42:17;;;;;;;;;57.00;45.00;;;;;13.12;96.28;98908.19;6272721;20;3637849;-70
2022/11/04 11:44:55;;;;;;;;;57.33;43.00;;;;;13.18;96.29;98907.66;6307224;20;3621134;-68
2022/11/04 11:47:27;;;;;;;;;49.00;42.33;;;;;13.54;95.92;98913.63;6267637;20;2858643;-71
2022/11/04 11:50:23;;;;;;;;;59.00;47.67;;;;;13.57;95.15;98913.34;6308339;20;3602383;-72
2022/11/04 11:52:52;;;;;;;;;58.33;45.00;;;;;13.14;95.39;98907.06;6273575;20;3637760;-70
2022/11/04 11:55:35;;;;;;;;;53.33;45.00;;;;;12.85;96.94;98914.03;6273553;20;3628384;-68
2022/11/04 11:58:22;;;;;;;;;60.33;46.67;;;;;12.81;97.36;98916.13;6269899;20;3628542;-69
2022/11/04 12:02:10;;;;;;;;;59.33;48.00;;;;;12.68;98.05;98907.34;6273177;20;3623432;-68
2022/11/04 12:04:40;;;;;;;;;63.00;49.00;;;;;12.56;98.31;98897.59;6266976;20;3637769;-69
2022/11/04 12:07:44;;;;;;;;;65.67;51.00;;;;;12.58;98.57;98887.56;6273725;20;3619022;-68
2022/11/04 12:11:02;;;;;;;;;75.75;57.50;;;;;12.61;98.03;98892.69;6271139;20;4439861;-68
2022/11/04 12:13:49;;;;;;;;;117.67;106.00;;;;;12.80;97.22;98884.78;6305224;20;3708709;-72
2022/11/04 12:17:08;;;;;;;;;111.00;102.33;;;;;12.66;98.66;98885.06;6269611;20;3701345;-71
2022/11/04 12:20:06;;;;;;;;;58.33;45.67;;;;;12.65;98.25;98867.22;6304456;20;3621252;-68
2022/11/04 12:23:26;;;;;;;;;55.00;44.00;;;;;12.61;98.92;98854.97;6270146;20;3616932;-69